createdAt,value
2018-01-03T00:01:37.330Z,7.43
2018-01-03T00:04:04.780Z,7.80
2018-01-03T00:06:32.252Z,7.03
2018-01-03T00:08:59.708Z,7.10
2018-01-03T00:11:27.181Z,8.17
2018-01-03T00:13:54.675Z,8.47
2018-01-03T00:16:22.216Z,7.93
2018-01-03T00:18:49.671Z,8.20
2018-01-03T00:21:17.156Z,6.80
2018-01-03T00:23:44.609Z,7.03
2018-01-03T00:26:12.081Z,7.17
2018-01-03T00:28:39.620Z,6.60
2018-01-03T00:31:07.072Z,7.00
2018-01-03T00:33:34.545Z,7.83
2018-01-03T00:36:02.004Z,7.17
2018-01-03T00:38:29.475Z,6.60
2018-01-03T00:40:56.924Z,6.80
2018-01-03T00:43:24.393Z,7.30
2018-01-03T00:45:52.862Z,6.90
2018-01-03T00:48:20.404Z,7.87
2018-01-03T00:50:47.851Z,7.63
2018-01-03T00:53:15.327Z,7.47
2018-01-03T00:55:42.780Z,7.10
2018-01-03T00:58:10.253Z,6.77
2018-01-03T01:00:37.708Z,7.07
2018-01-03T01:03:05.180Z,6.43
2018-01-03T01:05:32.628Z,6.17
2018-01-03T01:08:00.100Z,6.13
2018-01-03T01:10:27.552Z,5.73
2018-01-03T01:12:55.016Z,5.87
2018-01-03T01:15:22.477Z,5.97
2018-01-03T01:17:49.944Z,6.40
2018-01-03T01:20:17.400Z,6.20
2018-01-03T01:22:44.868Z,5.77
2018-01-03T01:25:12.324Z,6.30
2018-01-03T01:27:39.791Z,6.03
2018-01-03T01:30:07.243Z,5.80
2018-01-03T01:32:34.717Z,5.80
2018-01-03T01:35:02.186Z,6.53
2018-01-03T01:37:29.660Z,6.17
2018-01-03T01:39:57.116Z,6.23
2018-01-03T01:42:24.588Z,6.23
2018-01-03T01:44:52.044Z,5.90
2018-01-03T01:47:19.517Z,6.00
2018-01-03T01:49:46.972Z,5.60
2018-01-03T01:52:14.429Z,6.27
2018-01-03T01:54:41.903Z,5.77
2018-01-03T01:57:09.360Z,5.60
2018-01-03T01:59:36.833Z,6.47
2018-01-03T02:02:04.284Z,6.27
2018-01-03T02:04:31.756Z,5.80
2018-01-03T02:06:59.212Z,6.03
2018-01-03T02:09:26.669Z,6.23
2018-01-03T02:11:54.141Z,6.50
2018-01-03T02:14:21.596Z,6.20
2018-01-03T02:16:49.066Z,5.87
2018-01-03T02:19:16.515Z,6.30
2018-01-03T02:21:43.988Z,5.73
2018-01-03T02:24:11.444Z,6.23
2018-01-03T02:26:38.900Z,6.10
2018-01-03T02:29:06.380Z,5.87
2018-01-03T02:31:33.831Z,6.63
2018-01-03T02:34:01.304Z,6.13
2018-01-03T02:36:28.760Z,6.63
2018-01-03T02:38:56.236Z,6.60
2018-01-03T02:41:23.693Z,6.13
2018-01-03T02:43:51.140Z,6.57
2018-01-03T02:46:18.616Z,5.70
2018-01-03T02:48:46.067Z,5.73
2018-01-03T02:51:13.524Z,5.87
2018-01-03T02:53:40.996Z,5.63
2018-01-03T02:56:08.452Z,5.83
2018-01-03T02:58:35.920Z,5.63
2018-01-03T03:01:03.381Z,6.73
2018-01-03T03:03:30.838Z,6.97
2018-01-03T03:05:58.305Z,6.07
2018-01-03T03:08:25.755Z,6.27
2018-01-03T03:10:53.228Z,5.83
2018-01-03T03:13:20.679Z,6.20
2018-01-03T03:15:48.247Z,6.70
2018-01-03T03:18:15.703Z,6.80
2018-01-03T03:20:43.152Z,6.57
2018-01-03T03:23:10.624Z,6.50
2018-01-03T03:25:38.084Z,6.83
2018-01-03T03:28:05.560Z,5.90
2018-01-03T03:30:33.017Z,5.80
2018-01-03T03:33:00.505Z,5.90
2018-01-03T03:35:27.964Z,7.20
2018-01-03T03:37:55.416Z,5.40
2018-01-03T03:40:22.880Z,6.17
2018-01-03T03:42:50.328Z,6.20
2018-01-03T03:45:17.805Z,6.57
2018-01-03T03:47:45.261Z,6.10
2018-01-03T03:50:12.739Z,6.07
2018-01-03T03:52:40.192Z,5.90
2018-01-03T03:55:07.809Z,6.40
2018-01-03T03:57:35.283Z,5.40
2018-01-03T04:00:02.732Z,6.07
2018-01-03T04:02:30.200Z,6.40
2018-01-03T04:04:57.653Z,7.53
2018-01-03T04:07:25.119Z,6.80
2018-01-03T04:09:52.574Z,6.40
2018-01-03T04:12:20.024Z,6.43
2018-01-03T04:14:47.488Z,6.93
2018-01-03T04:17:14.940Z,6.40
2018-01-03T04:19:42.412Z,6.13
2018-01-03T04:22:09.872Z,6.07
2018-01-03T04:24:37.344Z,5.60
2018-01-03T04:27:04.796Z,5.63
2018-01-03T04:29:32.252Z,5.80
2018-01-03T04:31:59.725Z,6.17
2018-01-03T04:34:27.189Z,5.47
2018-01-03T04:36:54.659Z,5.50
2018-01-03T04:39:22.112Z,5.30
2018-01-03T04:41:49.584Z,5.83
2018-01-03T04:44:17.036Z,5.63
2018-01-03T04:46:44.487Z,5.50
2018-01-03T04:49:11.965Z,5.20
2018-01-03T04:51:39.431Z,5.83
2018-01-03T04:54:06.884Z,4.90
2018-01-03T04:56:34.353Z,4.80
2018-01-03T04:59:01.808Z,4.73
2018-01-03T05:01:29.260Z,5.77
2018-01-03T05:03:56.728Z,5.00
2018-01-03T05:06:24.190Z,5.10
2018-01-03T05:08:51.652Z,4.80
2018-01-03T05:11:19.128Z,5.20
2018-01-03T05:13:46.580Z,5.03
2018-01-03T05:16:14.047Z,5.50
2018-01-03T05:18:41.500Z,5.27
2018-01-03T05:21:08.952Z,5.43
2018-01-03T05:23:36.415Z,4.80
2018-01-03T05:26:03.872Z,5.93
2018-01-03T05:28:31.349Z,4.90
2018-01-03T05:30:58.804Z,5.23
2018-01-03T05:33:26.255Z,5.23
2018-01-03T05:35:53.729Z,5.27
2018-01-03T05:38:21.199Z,5.43
2018-01-03T05:40:48.656Z,5.63
2018-01-03T05:43:16.236Z,5.17
2018-01-03T05:45:43.683Z,5.17
2018-01-03T05:48:11.132Z,4.90
2018-01-03T05:50:38.600Z,5.07
2018-01-03T05:53:06.056Z,5.43
2018-01-03T05:55:33.583Z,5.43
2018-01-03T05:58:01.039Z,5.60
2018-01-03T06:00:28.497Z,5.40
2018-01-03T06:02:55.967Z,5.97
2018-01-03T06:05:23.420Z,5.83
2018-01-03T06:07:50.880Z,5.83
2018-01-03T06:10:18.360Z,5.67
2018-01-03T06:12:45.813Z,5.33
2018-01-03T06:15:13.263Z,5.00
2018-01-03T06:17:40.731Z,5.20
2018-01-03T06:20:08.190Z,4.70
2018-01-03T06:22:35.644Z,4.97
2018-01-03T06:25:03.114Z,4.87
2018-01-03T06:27:30.580Z,5.30
2018-01-03T06:29:58.053Z,4.90
2018-01-03T06:32:25.508Z,4.73
2018-01-03T06:34:52.979Z,5.00
2018-01-03T06:37:20.428Z,4.93
2018-01-03T06:39:47.888Z,5.50
2018-01-03T06:42:15.365Z,5.87
2018-01-03T06:44:42.820Z,5.17
2018-01-03T06:47:10.284Z,4.97
2018-01-03T06:49:37.756Z,5.30
2018-01-03T06:52:05.207Z,4.80
2018-01-03T06:54:32.766Z,5.10
2018-01-03T06:57:00.240Z,5.33
2018-01-03T06:59:27.688Z,5.20
2018-01-03T07:01:55.158Z,5.20
2018-01-03T07:04:22.695Z,5.23
2018-01-03T07:06:50.149Z,5.23
2018-01-03T07:09:17.624Z,5.60
2018-01-03T07:11:45.168Z,5.13
2018-01-03T07:14:12.625Z,5.00
2018-01-03T07:16:40.096Z,6.10
2018-01-03T07:19:07.572Z,5.40
2018-01-03T07:21:35.028Z,5.07
2018-01-03T07:24:02.496Z,5.13
2018-01-03T07:26:29.956Z,5.20
2018-01-03T07:28:57.472Z,6.17
2018-01-03T07:31:24.944Z,5.83
2018-01-03T07:33:52.400Z,5.00
2018-01-03T07:36:19.868Z,5.47
2018-01-03T07:38:47.323Z,5.03
2018-01-03T07:41:15.122Z,5.33
2018-01-03T07:43:42.605Z,5.10
2018-01-03T07:46:10.061Z,4.70
2018-01-03T07:48:37.581Z,4.77
2018-01-03T07:51:05.032Z,4.87
2018-01-03T07:53:32.504Z,5.23
2018-01-03T07:55:59.965Z,4.87
2018-01-03T07:58:27.493Z,4.60
2018-01-03T08:00:55.005Z,5.37
2018-01-03T08:03:23.335Z,4.80
2018-01-03T08:05:50.816Z,4.83
2018-01-03T08:08:18.314Z,5.00
2018-01-03T08:10:46.229Z,4.30
2018-01-03T08:13:13.891Z,4.90
2018-01-03T08:15:41.472Z,4.87
2018-01-03T08:18:08.940Z,4.43
2018-01-03T08:20:36.396Z,3.70
2018-01-03T08:23:03.864Z,3.90
2018-01-03T08:25:32.732Z,4.20
2018-01-03T08:28:00.244Z,3.57
2018-01-03T08:30:27.717Z,4.10
2018-01-03T08:32:55.172Z,3.43
2018-01-03T08:35:22.644Z,3.60
2018-01-03T08:37:50.108Z,3.27
2018-01-03T08:40:17.588Z,2.77
2018-01-03T08:42:47.151Z,2.60
2018-01-03T08:45:14.712Z,2.57
2018-01-03T08:47:42.184Z,2.00
2018-01-03T08:50:09.640Z,2.20
2018-01-03T08:52:37.136Z,2.20
2018-01-03T08:55:04.592Z,2.00
2018-01-03T08:57:32.048Z,1.60
2018-01-03T09:00:00.294Z,1.93
2018-01-03T09:02:27.812Z,1.90
2018-01-03T09:04:55.292Z,1.80
2018-01-03T09:07:22.788Z,1.67
2018-01-03T09:09:50.240Z,1.80
2018-01-03T09:12:17.729Z,1.80
2018-01-03T09:14:45.184Z,1.80
2018-01-03T09:17:12.656Z,1.90
2018-01-03T09:19:40.161Z,2.00
2018-01-03T09:22:07.648Z,2.00
2018-01-03T09:24:35.104Z,1.90
2018-01-03T09:27:02.560Z,2.10
2018-01-03T09:29:30.083Z,2.60
2018-01-03T09:31:57.568Z,2.60
2018-01-03T09:34:25.040Z,2.50
2018-01-03T09:36:52.496Z,2.50
2018-01-03T09:39:20.284Z,2.90
2018-01-03T09:41:47.741Z,3.20
2018-01-03T09:44:15.205Z,3.60
2018-01-03T09:46:42.671Z,3.93
2018-01-03T09:49:10.124Z,3.57
2018-01-03T09:51:37.620Z,4.07
2018-01-03T09:54:05.167Z,4.00
2018-01-03T09:56:32.635Z,4.23
2018-01-03T09:59:00.095Z,4.53
2018-01-03T10:01:27.547Z,4.20
2018-01-03T10:03:55.011Z,4.80
2018-01-03T10:06:22.460Z,4.57
2018-01-03T10:08:49.924Z,4.40
2018-01-03T10:11:17.388Z,4.63
2018-01-03T10:13:44.856Z,4.53
2018-01-03T10:16:12.384Z,4.40
2018-01-03T10:18:39.836Z,4.67
2018-01-03T10:21:07.308Z,4.40
2018-01-03T10:23:34.760Z,4.40
2018-01-03T10:26:02.232Z,4.40
2018-01-03T10:28:29.692Z,4.40
2018-01-03T10:30:57.165Z,4.83
2018-01-03T10:33:24.736Z,4.67
2018-01-03T10:35:52.188Z,4.50
2018-01-03T10:38:19.660Z,5.53
2018-01-03T10:40:47.112Z,5.00
2018-01-03T10:43:14.585Z,4.80
2018-01-03T10:45:42.083Z,5.33
2018-01-03T10:48:09.552Z,4.73
2018-01-03T10:50:37.009Z,5.47
2018-01-03T10:53:04.464Z,5.00
2018-01-03T10:55:42.155Z,4.87
2018-01-03T10:58:09.604Z,4.90
2018-01-03T11:00:37.077Z,5.50
2018-01-03T11:03:04.549Z,5.97
2018-01-03T11:05:32.029Z,5.67
2018-01-03T11:07:59.480Z,5.00
2018-01-03T11:10:26.932Z,5.13
2018-01-03T11:12:54.404Z,4.90
2018-01-03T11:15:21.868Z,4.83
2018-01-03T11:17:49.331Z,4.97
2018-01-03T11:20:16.783Z,5.60
2018-01-03T11:22:44.261Z,5.67
2018-01-03T11:25:11.716Z,5.43
2018-01-03T11:27:39.176Z,5.30
2018-01-03T11:30:06.647Z,5.33
2018-01-03T11:32:34.113Z,5.33
2018-01-03T11:35:01.580Z,5.33
2018-01-03T11:37:29.036Z,4.80
2018-01-03T11:39:56.508Z,5.33
2018-01-03T11:42:23.964Z,5.37
2018-01-03T11:44:51.420Z,5.13
2018-01-03T11:47:18.892Z,5.20
2018-01-03T11:49:46.352Z,4.73
2018-01-03T11:52:13.820Z,5.13
2018-01-03T11:54:41.270Z,4.70
2018-01-03T11:57:08.754Z,5.97
2018-01-03T11:59:36.207Z,4.73
2018-01-03T12:02:03.664Z,5.43
2018-01-03T12:04:31.136Z,4.70
2018-01-03T12:06:58.592Z,4.50
2018-01-03T12:09:26.116Z,4.60
2018-01-03T12:11:53.563Z,5.10
2018-01-03T12:14:21.036Z,5.53
2018-01-03T12:16:48.483Z,5.10
2018-01-03T12:19:15.940Z,4.70
2018-01-03T12:21:43.417Z,5.10
2018-01-03T12:24:10.877Z,5.13
2018-01-03T12:26:38.355Z,5.30
2018-01-03T12:29:05.815Z,4.93
2018-01-03T12:31:33.288Z,5.10
2018-01-03T12:34:00.753Z,5.50
2018-01-03T12:36:28.206Z,5.13
2018-01-03T12:38:55.765Z,5.13
2018-01-03T12:41:23.252Z,4.93
2018-01-03T12:43:50.716Z,5.37
2018-01-03T12:46:18.224Z,5.10
2018-01-03T12:48:45.704Z,5.67
2018-01-03T12:51:13.160Z,4.80
2018-01-03T12:53:40.622Z,5.43
2018-01-03T12:56:08.096Z,5.37
2018-01-03T12:58:35.552Z,5.20
2018-01-03T13:01:03.028Z,5.00
2018-01-03T13:03:30.494Z,5.63
2018-01-03T13:05:57.967Z,5.03
2018-01-03T13:08:25.457Z,4.80
2018-01-03T13:10:52.917Z,5.40
2018-01-03T13:13:20.388Z,5.70
2018-01-03T13:15:47.936Z,5.47
2018-01-03T13:18:15.389Z,5.50
2018-01-03T13:20:42.864Z,5.63
2018-01-03T13:23:10.320Z,5.90
2018-01-03T13:25:37.780Z,5.23
2018-01-03T13:28:05.248Z,5.53
2018-01-03T13:30:32.732Z,5.73
2018-01-03T13:33:00.183Z,5.43
2018-01-03T13:35:27.655Z,7.10
2018-01-03T13:37:55.112Z,6.20
2018-01-03T13:40:22.568Z,5.70
2018-01-03T13:42:50.044Z,6.37
2018-01-03T13:45:17.517Z,5.00
2018-01-03T13:47:44.973Z,6.07
2018-01-03T13:50:12.449Z,5.33
2018-01-03T13:52:39.906Z,5.73
2018-01-03T13:55:07.359Z,5.10
2018-01-03T13:57:34.828Z,5.10
2018-01-03T14:00:02.280Z,5.27
2018-01-03T14:02:29.743Z,5.60
2018-01-03T14:04:57.279Z,5.40
2018-01-03T14:07:24.784Z,5.87
2018-01-03T14:09:52.236Z,5.03
2018-01-03T14:12:19.703Z,4.77
2018-01-03T14:14:47.160Z,5.10
2018-01-03T14:17:14.628Z,4.70
2018-01-03T14:19:42.084Z,4.97
2018-01-03T14:22:09.540Z,4.83
2018-01-03T14:24:37.029Z,5.17
2018-01-03T14:27:04.479Z,5.33
2018-01-03T14:29:31.936Z,5.50
2018-01-03T14:31:59.403Z,5.80
2018-01-03T14:34:26.856Z,5.10
2018-01-03T14:36:54.304Z,5.07
2018-01-03T14:39:21.781Z,5.20
2018-01-03T14:41:49.240Z,5.90
2018-01-03T14:44:16.704Z,5.93
2018-01-03T14:46:44.181Z,5.77
2018-01-03T14:49:11.636Z,5.13
2018-01-03T14:51:39.088Z,5.20
2018-01-03T14:54:06.629Z,5.87
2018-01-03T14:56:34.091Z,5.40
2018-01-03T14:59:01.560Z,4.63
2018-01-03T15:01:29.028Z,5.83
2018-01-03T15:03:56.515Z,5.67
2018-01-03T15:06:23.978Z,5.17
2018-01-03T15:08:51.447Z,5.83
2018-01-03T15:11:18.937Z,5.90
2018-01-03T15:13:46.375Z,5.10
2018-01-03T15:16:13.848Z,5.47
2018-01-03T15:18:41.304Z,5.10
2018-01-03T15:21:08.760Z,5.77
2018-01-03T15:23:36.228Z,5.47
2018-01-03T15:26:03.680Z,5.37
2018-01-03T15:28:31.132Z,4.93
2018-01-03T15:30:58.603Z,5.37
2018-01-03T15:33:26.060Z,5.40
2018-01-03T15:35:53.516Z,5.17
2018-01-03T15:38:20.984Z,5.03
2018-01-03T15:40:48.461Z,5.37
2018-01-03T15:43:15.920Z,5.47
2018-01-03T15:45:43.434Z,5.70
2018-01-03T15:48:10.864Z,5.30
2018-01-03T15:50:38.320Z,6.20
2018-01-03T15:53:05.794Z,5.43
2018-01-03T15:55:33.243Z,5.60
2018-01-03T15:58:00.701Z,5.27
2018-01-03T16:00:28.180Z,5.47
2018-01-03T16:02:55.628Z,5.53
2018-01-03T16:05:23.151Z,5.43
2018-01-03T16:07:50.615Z,6.07
2018-01-03T16:10:18.073Z,6.17
2018-01-03T16:12:45.544Z,5.67
2018-01-03T16:15:13.016Z,5.97
2018-01-03T16:17:40.481Z,5.63
2018-01-03T16:20:07.954Z,6.00
2018-01-03T16:22:35.499Z,6.17
2018-01-03T16:25:02.953Z,5.83
2018-01-03T16:27:30.403Z,5.60
2018-01-03T16:29:57.879Z,5.50
2018-01-03T16:32:25.431Z,6.47
2018-01-03T16:34:52.892Z,6.23
2018-01-03T16:37:20.369Z,6.50
2018-01-03T16:39:47.825Z,6.10
2018-01-03T16:42:15.276Z,7.00
2018-01-03T16:44:42.756Z,6.10
2018-01-03T16:47:10.208Z,6.27
2018-01-03T16:49:37.658Z,5.90
2018-01-03T16:52:10.768Z,5.70
2018-01-03T16:54:38.216Z,6.30
2018-01-03T16:57:05.671Z,6.47
2018-01-03T16:59:33.152Z,6.07
2018-01-03T17:02:01.452Z,5.67
2018-01-03T17:04:28.909Z,6.87
2018-01-03T17:06:56.382Z,6.07
2018-01-03T17:09:23.910Z,6.80
2018-01-03T17:11:51.364Z,6.63
2018-01-03T17:14:18.835Z,5.93
2018-01-03T17:16:46.293Z,6.30
2018-01-03T17:19:13.751Z,7.20
2018-01-03T17:21:41.232Z,6.07
2018-01-03T17:24:08.790Z,6.07
2018-01-03T17:26:36.242Z,5.33
2018-01-03T17:29:03.709Z,6.30
2018-01-03T17:31:31.192Z,6.17
2018-01-03T17:33:58.656Z,6.27
2018-01-03T17:36:26.136Z,5.53
2018-01-03T17:38:53.592Z,5.70
2018-01-03T17:41:21.056Z,5.90
2018-01-03T17:43:48.524Z,5.50
2018-01-03T17:46:15.980Z,6.00
2018-01-03T17:48:43.432Z,6.07
2018-01-03T17:51:10.905Z,6.57
2018-01-03T17:53:38.362Z,7.53
2018-01-03T17:56:05.823Z,6.17
2018-01-03T17:58:33.297Z,6.87
2018-01-03T18:01:00.760Z,6.73
2018-01-03T18:03:28.216Z,6.57
2018-01-03T18:05:55.968Z,5.90
2018-01-03T18:08:23.465Z,6.13
2018-01-03T18:10:50.980Z,5.60
2018-01-03T18:13:19.000Z,6.73
2018-01-03T18:15:46.464Z,6.10
2018-01-03T18:18:13.919Z,5.97
2018-01-03T18:20:41.388Z,6.33
2018-01-03T18:23:08.844Z,6.50
2018-01-03T18:25:36.301Z,7.87
2018-01-03T18:28:03.810Z,11.03
2018-01-03T18:30:31.264Z,7.67
2018-01-03T18:32:58.725Z,6.90
2018-01-03T18:35:26.236Z,6.60
2018-01-03T18:37:53.696Z,6.63
2018-01-03T18:40:21.227Z,7.40
2018-01-03T18:42:48.706Z,9.17
2018-01-03T18:45:16.172Z,7.33
2018-01-03T18:47:43.628Z,7.00
2018-01-03T18:50:11.105Z,7.17
2018-01-03T18:52:38.570Z,7.03
2018-01-03T18:55:06.032Z,6.90
2018-01-03T18:57:33.538Z,7.83
2018-01-03T19:00:00.996Z,7.20
2018-01-03T19:02:28.803Z,6.90
2018-01-03T19:04:56.365Z,7.53
2018-01-03T19:07:23.903Z,6.90
2018-01-03T19:09:51.372Z,9.77
2018-01-03T19:12:18.843Z,8.43
2018-01-03T19:14:46.295Z,7.13
2018-01-03T19:17:13.748Z,5.77
2018-01-03T19:19:41.216Z,6.27
2018-01-03T19:22:08.672Z,6.53
2018-01-03T19:24:36.128Z,6.77
2018-01-03T19:27:03.608Z,5.83
2018-01-03T19:29:31.137Z,7.20
2018-01-03T19:31:58.559Z,6.27
2018-01-03T19:34:26.024Z,6.30
2018-01-03T19:36:54.376Z,6.33
2018-01-03T19:39:21.900Z,6.57
2018-01-03T19:41:50.120Z,6.30
2018-01-03T19:44:17.588Z,6.27
2018-01-03T19:46:45.040Z,5.83
2018-01-03T19:49:12.524Z,5.57
2018-01-03T19:51:39.991Z,6.70
2018-01-03T19:54:07.464Z,7.53
2018-01-03T19:56:34.936Z,6.27
2018-01-03T19:59:02.493Z,6.17
2018-01-03T20:01:29.948Z,6.60
2018-01-03T20:03:57.436Z,6.17
2018-01-03T20:06:24.892Z,6.67
2018-01-03T20:08:52.364Z,6.90
2018-01-03T20:11:19.815Z,6.63
2018-01-03T20:13:47.288Z,6.40
2018-01-03T20:16:15.544Z,7.07
2018-01-03T20:18:42.996Z,7.90
2018-01-03T20:21:10.467Z,7.13
2018-01-03T20:23:37.923Z,7.63
2018-01-03T20:26:05.399Z,7.53
2018-01-03T20:28:32.856Z,6.40
2018-01-03T20:31:00.953Z,6.30
2018-01-03T20:33:28.412Z,6.60
2018-01-03T20:35:55.868Z,6.60
2018-01-03T20:38:23.989Z,6.00
2018-01-03T20:40:51.440Z,6.30
2018-01-03T20:43:18.948Z,6.90
2018-01-03T20:45:46.400Z,7.53
2018-01-03T20:48:13.852Z,6.50
2018-01-03T20:50:41.328Z,6.13
2018-01-03T20:53:08.784Z,6.53
2018-01-03T20:55:36.366Z,6.23
2018-01-03T20:58:03.825Z,5.90
2018-01-03T21:00:31.387Z,6.77
2018-01-03T21:03:02.087Z,6.00
2018-01-03T21:05:32.093Z,6.10
2018-01-03T21:07:59.556Z,6.80
2018-01-03T21:10:30.102Z,6.60
2018-01-03T21:12:57.964Z,6.57
2018-01-03T21:15:25.478Z,6.50
2018-01-03T21:17:55.958Z,7.33
2018-01-03T21:20:23.572Z,6.17
2018-01-03T21:23:05.001Z,7.17
2018-01-03T21:25:32.528Z,7.50
2018-01-03T21:27:59.996Z,7.10
2018-01-03T21:30:27.451Z,6.83
2018-01-03T21:32:54.936Z,6.20
2018-01-03T21:35:34.010Z,6.00
2018-01-03T21:38:01.646Z,6.57
2018-01-03T21:40:29.249Z,6.50
2018-01-03T21:42:56.725Z,6.27
2018-01-03T21:45:24.238Z,5.73
2018-01-03T21:47:51.740Z,6.17
2018-01-03T21:50:19.253Z,6.70
2018-01-03T21:52:46.728Z,6.17
2018-01-03T21:55:14.200Z,6.20
2018-01-03T21:57:41.660Z,7.73
2018-01-03T22:00:09.255Z,6.13
2018-01-03T22:02:37.663Z,5.90
2018-01-03T22:05:05.212Z,6.27
2018-01-03T22:07:32.732Z,7.20
2018-01-03T22:10:00.192Z,6.63
2018-01-03T22:12:28.240Z,8.47
2018-01-03T22:14:57.882Z,7.00
2018-01-03T22:17:26.224Z,9.70
2018-01-03T22:19:55.157Z,6.77
2018-01-03T22:22:22.748Z,6.70
2018-01-03T22:24:50.492Z,5.50
2018-01-03T22:27:31.450Z,7.57
2018-01-03T22:30:00.949Z,7.20
2018-01-03T22:32:28.464Z,6.30
2018-01-03T22:34:57.105Z,6.67
2018-01-03T22:37:25.808Z,6.67
2018-01-03T22:39:53.460Z,6.23
2018-01-03T22:42:20.929Z,7.60
2018-01-03T22:44:48.393Z,6.10
2018-01-03T22:47:15.864Z,5.70
2018-01-03T22:49:43.320Z,6.63
2018-01-03T22:52:12.932Z,6.77
2018-01-03T22:54:40.441Z,6.00
2018-01-03T22:57:20.277Z,5.57
2018-01-03T22:59:47.968Z,7.73
2018-01-03T23:02:15.646Z,6.53
2018-01-03T23:04:43.105Z,6.37
2018-01-03T23:07:10.596Z,7.43
2018-01-03T23:09:38.116Z,6.87
2018-01-03T23:12:05.676Z,5.70
2018-01-03T23:14:33.149Z,5.80
2018-01-03T23:17:00.617Z,6.10
2018-01-03T23:19:28.101Z,5.77
2018-01-03T23:21:55.607Z,5.93
2018-01-03T23:24:23.092Z,6.07
2018-01-03T23:26:50.548Z,5.53
2018-01-03T23:29:18.036Z,6.23
2018-01-03T23:31:46.528Z,5.70
2018-01-03T23:34:14.019Z,5.70
2018-01-03T23:36:41.490Z,5.80
2018-01-03T23:39:09.031Z,6.10
2018-01-03T23:41:36.505Z,5.77
2018-01-03T23:44:03.988Z,5.80
2018-01-03T23:46:31.448Z,5.97
2018-01-03T23:48:58.924Z,6.30
2018-01-03T23:51:26.381Z,6.30
2018-01-03T23:53:53.881Z,6.37
2018-01-03T23:56:21.337Z,6.77
2018-01-03T23:58:48.817Z,5.97
